This is the latest recevied weather packets stored in our database for station/object EUGENE. If no packets are shown the sender has not sent any weather packets the latest 10 day(s).
| Time | Temp. | Humidity | Pressure | Rain* | Wind** | Luminosity | Snow |
|---|---|---|---|---|---|---|---|
| 1777687025 | 19.44° C | 71% | 1014.4 hPa | 0 mm | - | - | - |
| 1777686125 | 20° C | 70% | 1014.4 hPa | 0 mm | - | - | - |
| 1777685225 | 20.56° C | 70% | 1014.3 hPa | 0 mm | - | - | - |
| 1777684325 | 21.11° C | 69% | 1014.2 hPa | 0 mm | - | - | - |
| 1777683425 | 21.11° C | 64% | 1014.2 hPa | 0 mm | - | - | - |
| 1777682525 | 22.78° C | 60% | 1014.1 hPa | 0 mm | - | - | - |
| 1777681626 | 22.78° C | 60% | 1014.2 hPa | 0 mm | - | - | - |
| 1777680725 | 22.78° C | 58% | 1014.3 hPa | 0 mm | - | - | - |
| 1777679825 | 22.78° C | 58% | 1014.4 hPa | 0 mm | - | - | - |
| 1777678925 | 23.33° C | 54% | 1014.4 hPa | 0 mm | - | - | - |
| 1777678025 | 22.78° C | 54% | 1014.5 hPa | 0 mm | - | - | - |
| 1777677126 | 22.22° C | 57% | 1014.7 hPa | 0 mm | - | - | - |
| 1777676225 | 22.22° C | 58% | 1015 hPa | 0 mm | - | - | - |
| 1777675325 | 22.22° C | 57% | 1015.1 hPa | 0 mm | - | - | - |
| 1777674427 | 22.22° C | 57% | 1015.3 hPa | 0 mm | - | - | - |
| 1777673525 | 21.67° C | 61% | 1015.6 hPa | 0 mm | - | - | - |
| 1777672625 | 21.11° C | 59% | 1015.8 hPa | 0 mm | - | - | - |
| 1777671725 | 20.56° C | 60% | 1015.9 hPa | 0 mm | - | - | - |
| 1777670825 | 20.56° C | 65% | 1016 hPa | 0 mm | - | - | - |
| 1777669926 | 20.56° C | 63% | 1016.1 hPa | 0 mm | - | - | - |
| 1777669025 | 20° C | 67% | 1016.2 hPa | 0 mm | - | - | - |
| 1777668125 | 19.44° C | 65% | 1016.5 hPa | 0 mm | - | - | - |
| 1777667225 | 18.89° C | 69% | 1016.7 hPa | 0 mm | - | - | - |
| 1777666325 | 18.89° C | 68% | 1016.9 hPa | 0 mm | - | - | - |
| 1777665425 | 17.78° C | 71% | 1017.1 hPa | 0 mm | - | - | - |
* Rain latest hour (hover to see other rain measurements)
** Current wind speed in m/s (hover to see current wind gust speed)